createdAt,value
2018-06-17T00:00:57.445Z,15.94
2018-06-17T00:03:26.209Z,15.90
2018-06-17T00:06:01.245Z,15.86
2018-06-17T00:08:30.289Z,15.85
2018-06-17T00:10:58.717Z,15.13
2018-06-17T00:13:27.182Z,15.73
2018-06-17T00:15:55.817Z,15.70
2018-06-17T00:18:24.261Z,15.64
2018-06-17T00:20:52.741Z,15.56
2018-06-17T00:23:21.835Z,15.51
2018-06-17T00:25:50.734Z,15.44
2018-06-17T00:28:19.258Z,15.40
2018-06-17T00:30:48.197Z,15.36
2018-06-17T00:33:16.985Z,15.34
2018-06-17T00:35:45.449Z,15.30
2018-06-17T00:38:14.245Z,15.27
2018-06-17T00:40:42.758Z,15.23
2018-06-17T00:43:11.317Z,15.20
2018-06-17T00:45:40.002Z,15.22
2018-06-17T00:48:08.442Z,15.21
2018-06-17T00:50:37.885Z,15.24
2018-06-17T00:53:06.331Z,15.24
2018-06-17T00:55:34.763Z,15.25
2018-06-17T00:58:03.823Z,15.25
2018-06-17T01:00:32.573Z,15.27
2018-06-17T01:03:01.005Z,15.31
2018-06-17T01:05:29.933Z,15.35
2018-06-17T01:07:58.605Z,15.39
2018-06-17T01:10:27.793Z,15.41
2018-06-17T01:12:56.363Z,15.43
2018-06-17T01:15:25.049Z,15.43
2018-06-17T01:17:53.468Z,15.43
2018-06-17T01:20:21.925Z,15.43
2018-06-17T01:22:51.454Z,15.45
2018-06-17T01:25:19.890Z,15.43
2018-06-17T01:27:48.334Z,15.43
2018-06-17T01:30:17.367Z,15.43
2018-06-17T01:32:46.058Z,15.43
2018-06-17T01:35:14.520Z,15.43
2018-06-17T01:37:43.165Z,15.43
2018-06-17T01:40:11.678Z,15.43
2018-06-17T01:42:40.115Z,15.48
2018-06-17T01:45:09.053Z,15.51
2018-06-17T01:47:37.469Z,15.52
2018-06-17T01:50:06.022Z,15.52
2018-06-17T01:52:34.478Z,15.54
2018-06-17T01:55:03.149Z,15.61
2018-06-17T01:57:31.594Z,15.66
2018-06-17T02:00:00.282Z,15.71
2018-06-17T02:02:28.791Z,15.76
2018-06-17T02:05:02.638Z,15.77
2018-06-17T02:07:36.277Z,15.79
2018-06-17T02:10:10.688Z,15.85
2018-06-17T02:12:40.221Z,15.85
2018-06-17T02:15:08.662Z,15.86
2018-06-17T02:17:37.113Z,15.87
2018-06-17T02:20:05.622Z,15.90
2018-06-17T02:22:34.057Z,15.93
2018-06-17T02:25:02.573Z,15.98
2018-06-17T02:27:31.853Z,16.03
2018-06-17T02:30:01.110Z,16.07
2018-06-17T02:32:29.533Z,16.10
2018-06-17T02:34:58.186Z,16.10
2018-06-17T02:37:26.954Z,16.12
2018-06-17T02:39:55.913Z,16.12
2018-06-17T02:42:24.595Z,16.14
2018-06-17T02:44:58.522Z,16.17
2018-06-17T02:47:32.328Z,16.19
2018-06-17T02:50:06.150Z,16.18
2018-06-17T02:52:39.873Z,16.20
2018-06-17T02:55:08.615Z,16.20
2018-06-17T02:57:37.148Z,16.20
2018-06-17T03:00:05.645Z,16.23
2018-06-17T03:02:34.684Z,16.23
2018-06-17T03:05:03.225Z,16.23
2018-06-17T03:07:31.684Z,16.22
2018-06-17T03:10:00.444Z,16.21
2018-06-17T03:12:29.445Z,16.21
2018-06-17T03:14:57.953Z,16.25
2018-06-17T03:17:26.993Z,16.26
2018-06-17T03:19:58.647Z,16.28
2018-06-17T03:22:27.150Z,16.31
2018-06-17T03:25:01.189Z,16.34
2018-06-17T03:27:34.805Z,16.39
2018-06-17T03:30:08.525Z,16.42
2018-06-17T03:32:42.185Z,16.48
2018-06-17T03:35:16.102Z,16.53
2018-06-17T03:37:44.723Z,16.58
2018-06-17T03:40:13.473Z,16.62
2018-06-17T03:42:41.903Z,16.69
2018-06-17T03:45:10.356Z,16.74
2018-06-17T03:47:39.241Z,16.79
2018-06-17T03:50:07.773Z,16.84
2018-06-17T03:52:36.280Z,16.87
2018-06-17T03:55:04.877Z,16.92
2018-06-17T03:57:33.710Z,16.95
2018-06-17T04:00:03.482Z,16.96
2018-06-17T04:02:34.213Z,16.96
2018-06-17T04:05:07.935Z,16.96
2018-06-17T04:07:36.933Z,16.93
2018-06-17T04:10:05.697Z,16.93
2018-06-17T04:12:35.109Z,16.91
2018-06-17T04:15:04.019Z,16.92
2018-06-17T04:17:32.509Z,16.90
2018-06-17T04:20:01.430Z,16.87
2018-06-17T04:22:29.903Z,16.88
2018-06-17T04:24:58.321Z,16.92
2018-06-17T04:27:26.816Z,16.93
2018-06-17T04:29:55.727Z,16.90
2018-06-17T04:32:24.162Z,16.90
2018-06-17T04:34:53.877Z,16.90
2018-06-17T04:37:22.534Z,16.92
2018-06-17T04:39:51.245Z,16.91
2018-06-17T04:42:19.661Z,16.92
2018-06-17T04:44:48.582Z,16.97
2018-06-17T04:47:17.242Z,17.00
2018-06-17T04:49:45.678Z,17.03
2018-06-17T04:52:14.230Z,17.07
2018-06-17T04:54:42.941Z,17.11
2018-06-17T04:57:11.653Z,17.15
2018-06-17T04:59:40.217Z,17.18
2018-06-17T05:02:08.729Z,17.27
2018-06-17T05:04:37.453Z,17.35
2018-06-17T05:07:06.333Z,17.47
2018-06-17T05:09:34.761Z,17.52
2018-06-17T05:12:03.565Z,17.55
2018-06-17T05:14:32.275Z,17.60
2018-06-17T05:17:00.868Z,17.64
2018-06-17T05:19:29.521Z,17.68
2018-06-17T05:21:58.269Z,17.70
2018-06-17T05:24:26.720Z,17.74
2018-06-17T05:26:55.154Z,17.82
2018-06-17T05:29:23.893Z,17.90
2018-06-17T05:31:52.501Z,17.96
2018-06-17T05:34:20.957Z,18.02
2018-06-17T05:36:49.741Z,18.03
2018-06-17T05:39:18.407Z,18.01
2018-06-17T05:41:46.873Z,18.03
2018-06-17T05:44:15.317Z,18.04
2018-06-17T05:46:43.833Z,18.05
2018-06-17T05:49:12.273Z,18.06
2018-06-17T05:51:40.740Z,18.13
2018-06-17T05:54:09.598Z,18.19
2018-06-17T05:56:38.063Z,18.22
2018-06-17T05:59:06.548Z,18.28
2018-06-17T06:01:35.057Z,18.37
2018-06-17T06:04:03.620Z,18.45
2018-06-17T06:06:32.026Z,18.53
2018-06-17T06:09:00.530Z,18.56
2018-06-17T06:11:29.090Z,18.62
2018-06-17T06:13:57.561Z,18.70
2018-06-17T06:16:26.413Z,18.77
2018-06-17T06:18:55.058Z,18.85
2018-06-17T06:21:23.820Z,18.88
2018-06-17T06:23:52.245Z,18.93
2018-06-17T06:26:20.695Z,19.01
2018-06-17T06:28:49.370Z,19.13
2018-06-17T06:31:17.850Z,19.20
2018-06-17T06:33:47.194Z,19.29
2018-06-17T06:36:16.614Z,19.35
2018-06-17T06:38:45.030Z,19.39
2018-06-17T06:41:13.445Z,19.47
2018-06-17T06:43:42.117Z,19.54
2018-06-17T06:46:10.762Z,19.56
2018-06-17T06:48:39.206Z,19.56
2018-06-17T06:51:07.885Z,19.57
2018-06-17T06:53:36.511Z,19.67
2018-06-17T06:56:05.354Z,19.77
2018-06-17T06:58:33.830Z,19.84
2018-06-17T07:01:02.567Z,19.88
2018-06-17T07:03:42.443Z,19.93
2018-06-17T07:06:22.199Z,19.94
2018-06-17T07:09:02.355Z,20.12
2018-06-17T07:11:31.082Z,20.25
2018-06-17T07:13:59.691Z,20.38
2018-06-17T07:16:40.820Z,20.54
2018-06-17T07:19:09.623Z,20.66
2018-06-17T07:21:38.109Z,20.80
2018-06-17T07:24:07.941Z,20.96
2018-06-17T07:26:52.893Z,21.00
2018-06-17T07:29:36.950Z,21.12
2018-06-17T07:32:05.730Z,21.34
2018-06-17T07:34:34.645Z,21.66
2018-06-17T07:37:03.390Z,21.93
2018-06-17T07:41:40.149Z,22.22
2018-06-17T07:44:08.745Z,23.17
2018-06-17T07:46:37.241Z,24.12
2018-06-17T07:49:47.717Z,25.08
2018-06-17T07:52:28.547Z,26.26
2018-06-17T07:54:57.906Z,26.66
2018-06-17T07:57:27.607Z,26.94
2018-06-17T07:59:56.147Z,26.77
2018-06-17T08:02:25.329Z,26.78
2018-06-17T08:04:53.902Z,26.86
2018-06-17T08:07:22.541Z,27.00
2018-06-17T08:09:51.043Z,27.06
2018-06-17T08:12:19.571Z,27.03
2018-06-17T08:14:47.981Z,26.93
2018-06-17T08:17:16.597Z,26.90
2018-06-17T08:19:45.185Z,26.88
2018-06-17T08:22:13.860Z,26.85
2018-06-17T08:24:42.969Z,27.06
2018-06-17T08:27:11.390Z,27.09
2018-06-17T08:29:39.985Z,26.74
2018-06-17T08:32:08.437Z,26.69
2018-06-17T08:34:36.867Z,26.84
2018-06-17T08:37:05.897Z,26.79
2018-06-17T08:39:34.361Z,26.62
2018-06-17T08:42:02.774Z,26.85
2018-06-17T08:44:31.409Z,26.50
2018-06-17T08:47:00.528Z,26.07
2018-06-17T08:49:29.029Z,26.08
2018-06-17T08:51:57.777Z,26.04
2018-06-17T08:54:26.489Z,26.03
2018-06-17T08:56:54.934Z,26.37
2018-06-17T08:59:23.392Z,26.73
2018-06-17T09:01:52.032Z,26.92
2018-06-17T09:04:20.450Z,27.10
2018-06-17T09:06:48.865Z,27.40
2018-06-17T09:09:17.549Z,27.60
2018-06-17T09:11:46.201Z,27.95
2018-06-17T09:14:14.633Z,28.51
2018-06-17T09:16:43.097Z,28.84
2018-06-17T09:19:12.065Z,28.97
2018-06-17T09:21:40.918Z,29.04
2018-06-17T09:24:09.391Z,29.34
2018-06-17T09:26:38.171Z,29.82
2018-06-17T09:29:06.605Z,30.09
2018-06-17T09:31:35.174Z,29.78
2018-06-17T09:34:03.636Z,30.13
2018-06-17T09:36:33.046Z,29.86
2018-06-17T09:39:02.510Z,29.92
2018-06-17T09:41:31.306Z,29.61
2018-06-17T09:44:00.405Z,29.13
2018-06-17T09:46:29.143Z,29.46
2018-06-17T09:48:57.563Z,29.70
2018-06-17T09:51:26.232Z,29.45
2018-06-17T09:53:54.830Z,29.44
2018-06-17T09:56:23.257Z,29.34
2018-06-17T09:58:51.782Z,29.01
2018-06-17T10:01:20.589Z,29.37
2018-06-17T10:03:49.661Z,29.44
2018-06-17T10:06:18.092Z,29.62
2018-06-17T10:08:47.038Z,29.65
2018-06-17T10:11:15.470Z,30.03
2018-06-17T10:13:44.941Z,30.13
2018-06-17T10:16:15.080Z,30.42
2018-06-17T10:18:43.757Z,30.90
2018-06-17T10:21:12.338Z,31.07
2018-06-17T10:23:41.753Z,31.25
2018-06-17T10:26:10.225Z,31.52
2018-06-17T10:28:38.693Z,31.81
2018-06-17T10:31:08.021Z,31.11
2018-06-17T10:33:37.109Z,30.72
2018-06-17T10:36:05.705Z,31.04
2018-06-17T10:38:34.308Z,31.03
2018-06-17T10:41:03.698Z,30.67
2018-06-17T10:43:33.497Z,30.23
2018-06-17T10:46:02.551Z,30.27
2018-06-17T10:48:31.273Z,30.39
2018-06-17T10:50:59.705Z,30.77
2018-06-17T10:53:28.483Z,30.76
2018-06-17T10:55:57.405Z,30.80
2018-06-17T10:58:25.799Z,30.78
2018-06-17T11:00:54.869Z,30.75
2018-06-17T11:03:23.329Z,30.57
2018-06-17T11:05:52.054Z,30.25
2018-06-17T11:08:20.936Z,30.03
2018-06-17T11:10:50.411Z,29.20
2018-06-17T11:13:18.906Z,28.76
2018-06-17T11:15:47.419Z,28.75
2018-06-17T11:18:15.920Z,28.56
2018-06-17T11:20:44.430Z,28.74
2018-06-17T11:23:13.345Z,28.90
2018-06-17T11:25:42.243Z,29.29
2018-06-17T11:28:10.685Z,29.66
2018-06-17T11:30:39.456Z,29.17
2018-06-17T11:33:07.953Z,28.55
2018-06-17T11:35:36.829Z,28.24
2018-06-17T11:38:05.853Z,27.99
2018-06-17T11:40:34.381Z,27.42
2018-06-17T11:43:02.803Z,26.90
2018-06-17T11:45:31.836Z,26.51
2018-06-17T11:48:01.629Z,26.26
2018-06-17T11:50:30.061Z,26.01
2018-06-17T11:52:58.885Z,25.84
2018-06-17T11:55:27.478Z,25.75
2018-06-17T11:57:55.897Z,25.52
2018-06-17T12:00:24.611Z,25.45
2018-06-17T12:02:53.300Z,25.29
2018-06-17T12:05:21.722Z,24.94
2018-06-17T12:07:50.671Z,24.74
2018-06-17T12:10:19.213Z,24.58
2018-06-17T12:12:48.033Z,24.60
2018-06-17T12:15:16.733Z,24.88
2018-06-17T12:17:45.203Z,25.48
2018-06-17T12:20:13.770Z,26.25
2018-06-17T12:22:42.778Z,26.77
2018-06-17T12:25:11.349Z,26.79
2018-06-17T12:27:40.670Z,26.74
2018-06-17T12:30:09.342Z,26.52
2018-06-17T12:32:37.754Z,26.50
2018-06-17T12:35:06.213Z,26.58
2018-06-17T12:37:34.901Z,26.55
2018-06-17T12:40:03.427Z,26.44
2018-06-17T12:42:31.906Z,26.33
2018-06-17T12:45:00.629Z,26.12
2018-06-17T12:47:29.130Z,25.92
2018-06-17T12:49:57.550Z,25.88
2018-06-17T12:52:26.301Z,26.19
2018-06-17T12:54:55.425Z,26.78
2018-06-17T12:57:24.623Z,26.81
2018-06-17T12:59:53.292Z,26.75
2018-06-17T13:02:21.857Z,26.24
2018-06-17T13:04:50.277Z,25.85
2018-06-17T13:07:19.029Z,25.59
2018-06-17T13:09:47.829Z,25.34
2018-06-17T13:12:16.257Z,24.97
2018-06-17T13:14:44.789Z,24.67
2018-06-17T13:17:13.297Z,24.59
2018-06-17T13:19:41.845Z,24.68
2018-06-17T13:22:10.389Z,24.39
2018-06-17T13:24:38.805Z,24.31
2018-06-17T13:27:07.486Z,24.15
2018-06-17T13:29:36.205Z,23.94
2018-06-17T13:32:04.694Z,23.80
2018-06-17T13:34:34.341Z,23.62
2018-06-17T13:37:02.942Z,23.45
2018-06-17T13:39:32.321Z,23.28
2018-06-17T13:42:00.842Z,23.14
2018-06-17T13:44:30.101Z,23.02
2018-06-17T13:46:58.533Z,22.99
2018-06-17T13:49:26.976Z,22.89
2018-06-17T13:51:55.969Z,22.74
2018-06-17T13:54:24.476Z,22.75
2018-06-17T13:56:52.905Z,22.77
2018-06-17T13:59:21.469Z,22.86
2018-06-17T14:01:50.192Z,22.89
2018-06-17T14:04:18.617Z,22.81
2018-06-17T14:06:47.493Z,22.70
2018-06-17T14:09:16.026Z,22.68
2018-06-17T14:11:44.950Z,22.58
2018-06-17T14:14:14.264Z,22.44
2018-06-17T14:16:43.753Z,22.24
2018-06-17T14:19:12.182Z,22.27
2018-06-17T14:21:40.908Z,22.20
2018-06-17T14:24:09.333Z,22.05
2018-06-17T14:26:37.973Z,21.97
2018-06-17T14:29:07.466Z,21.91
2018-06-17T14:31:36.106Z,21.76
2018-06-17T14:34:04.642Z,21.69
2018-06-17T14:36:33.538Z,21.64
2018-06-17T14:39:03.057Z,21.49
2018-06-17T14:41:31.541Z,21.41
2018-06-17T14:44:05.439Z,21.30
2018-06-17T14:46:38.946Z,21.22
2018-06-17T14:49:12.585Z,21.19
2018-06-17T14:51:46.254Z,21.02
2018-06-17T14:54:15.226Z,20.78
2018-06-17T14:56:49.890Z,20.41
2018-06-17T14:59:18.862Z,19.99
2018-06-17T15:01:47.303Z,19.60
2018-06-17T15:04:15.720Z,19.40
2018-06-17T15:06:44.366Z,19.17
2018-06-17T15:09:12.954Z,18.94
2018-06-17T15:11:41.380Z,18.71
2018-06-17T15:14:10.086Z,18.58
2018-06-17T15:16:38.725Z,18.46
2018-06-17T15:19:07.950Z,18.40
2018-06-17T15:21:36.413Z,18.42
2018-06-17T15:24:05.147Z,18.47
2018-06-17T15:26:33.658Z,18.38
2018-06-17T15:29:02.779Z,18.27
2018-06-17T15:31:36.873Z,18.13
2018-06-17T15:36:17.340Z,18.01
2018-06-17T15:38:53.513Z,17.94
2018-06-17T15:41:28.030Z,17.86
2018-06-17T15:43:58.033Z,17.81
2018-06-17T15:46:27.377Z,17.75
2018-06-17T15:48:55.973Z,17.63
2018-06-17T15:51:24.411Z,17.45
2018-06-17T15:53:52.851Z,17.30
2018-06-17T15:56:21.710Z,17.19
2018-06-17T15:58:50.132Z,17.14
2018-06-17T16:01:18.566Z,17.08
2018-06-17T16:03:47.717Z,17.09
2018-06-17T16:06:16.310Z,17.09
2018-06-17T16:08:44.816Z,17.11
2018-06-17T16:11:13.297Z,17.12
2018-06-17T16:13:46.972Z,17.13
2018-06-17T16:16:20.509Z,17.19
2018-06-17T16:18:54.090Z,17.21
2018-06-17T16:21:22.741Z,17.19
2018-06-17T16:23:51.190Z,17.19
2018-06-17T16:26:19.677Z,17.23
2018-06-17T16:28:48.527Z,17.19
2018-06-17T16:31:16.957Z,17.23
2018-06-17T16:33:45.546Z,17.14
2018-06-17T16:36:14.098Z,17.37
2018-06-17T16:38:42.630Z,17.38
2018-06-17T16:41:11.057Z,17.57
2018-06-17T16:43:39.653Z,18.32
2018-06-17T16:46:08.589Z,19.18
2018-06-17T16:48:37.418Z,19.75
2018-06-17T16:51:10.978Z,20.03
2018-06-17T16:53:44.621Z,20.27
2018-06-17T16:56:18.289Z,20.11
2018-06-17T16:58:52.237Z,19.91
2018-06-17T17:01:20.825Z,19.66
2018-06-17T17:03:50.437Z,19.46
2018-06-17T17:06:18.856Z,19.14
2018-06-17T17:08:47.521Z,18.94
2018-06-17T17:11:15.936Z,18.85
2018-06-17T17:13:44.377Z,18.78
2018-06-17T17:16:13.392Z,18.62
2018-06-17T17:18:41.825Z,18.52
2018-06-17T17:21:10.256Z,18.44
2018-06-17T17:23:39.459Z,18.33
2018-06-17T17:26:07.893Z,18.25
2018-06-17T17:28:36.325Z,18.10
2018-06-17T17:31:05.041Z,18.05
2018-06-17T17:33:38.777Z,18.01
2018-06-17T17:38:17.384Z,17.99
2018-06-17T17:40:49.490Z,17.94
2018-06-17T17:43:18.082Z,17.93
2018-06-17T17:45:52.038Z,17.92
2018-06-17T17:48:20.598Z,17.90
2018-06-17T17:50:49.449Z,17.89
2018-06-17T17:53:17.878Z,17.83
2018-06-17T17:55:47.286Z,17.81
2018-06-17T17:58:15.809Z,17.78
2018-06-17T18:00:44.249Z,17.75
2018-06-17T18:03:13.175Z,17.73
2018-06-17T18:05:41.633Z,17.72
2018-06-17T18:08:10.625Z,17.71
2018-06-17T18:10:39.555Z,17.69
2018-06-17T18:13:08.062Z,17.69
2018-06-17T18:15:36.489Z,17.69
2018-06-17T18:18:05.073Z,17.62
2018-06-17T18:20:33.683Z,17.58
2018-06-17T18:23:02.153Z,17.56
2018-06-17T18:25:35.782Z,17.42
2018-06-17T18:28:09.667Z,17.14
2018-06-17T18:30:43.810Z,16.88
2018-06-17T18:33:17.658Z,16.68
2018-06-17T18:35:51.350Z,16.60
2018-06-17T18:38:20.022Z,16.53
2018-06-17T18:40:48.473Z,16.39
2018-06-17T18:43:17.025Z,16.31
2018-06-17T18:45:45.467Z,16.28
2018-06-17T18:48:14.006Z,16.26
2018-06-17T18:50:43.029Z,16.23
2018-06-17T18:53:11.598Z,16.19
2018-06-17T18:55:40.058Z,16.17
2018-06-17T18:58:08.877Z,16.16
2018-06-17T19:00:37.520Z,16.20
2018-06-17T19:03:05.947Z,16.23
2018-06-17T19:05:34.426Z,16.19
2018-06-17T19:08:03.409Z,16.19
2018-06-17T19:10:38.057Z,16.19
2018-06-17T19:13:11.846Z,16.19
2018-06-17T19:15:45.954Z,16.19
2018-06-17T19:18:14.746Z,16.18
2018-06-17T19:20:43.191Z,16.18
2018-06-17T19:23:12.033Z,16.17
2018-06-17T19:25:40.953Z,16.15
2018-06-17T19:28:09.669Z,16.14
2018-06-17T19:30:38.230Z,16.13
2018-06-17T19:33:06.741Z,16.11
2018-06-17T19:35:35.286Z,16.07
2018-06-17T19:38:03.793Z,16.07
2018-06-17T19:40:32.658Z,16.06
2018-06-17T19:43:01.165Z,16.07
2018-06-17T19:45:29.926Z,16.09
2018-06-17T19:47:58.733Z,16.08
2018-06-17T19:50:32.405Z,16.06
2018-06-17T19:53:06.058Z,16.03
2018-06-17T19:55:39.821Z,16.01
2018-06-17T19:58:13.618Z,16.00
2018-06-17T20:00:43.790Z,15.95
2018-06-17T20:03:12.461Z,15.95
2018-06-17T20:05:40.909Z,15.93
2018-06-17T20:08:09.821Z,15.90
2018-06-17T20:10:38.405Z,15.87
2018-06-17T20:13:06.888Z,15.85
2018-06-17T20:15:35.468Z,15.83
2018-06-17T20:18:04.294Z,15.82
2018-06-17T20:20:32.939Z,15.85
2018-06-17T20:23:02.481Z,15.84
2018-06-17T20:25:30.945Z,15.82
2018-06-17T20:28:00.732Z,15.81
2018-06-17T20:30:29.217Z,15.80
2018-06-17T20:33:03.889Z,15.80
2018-06-17T20:37:42.082Z,15.81
2018-06-17T20:40:15.718Z,15.79
2018-06-17T20:42:49.690Z,15.77
2018-06-17T20:45:18.446Z,15.74
2018-06-17T20:47:47.212Z,15.71
2018-06-17T20:50:15.874Z,15.69
2018-06-17T20:52:44.835Z,15.68
2018-06-17T20:55:13.266Z,15.69
2018-06-17T20:57:41.763Z,15.69
2018-06-17T21:00:10.717Z,15.69
2018-06-17T21:02:39.141Z,15.71
2018-06-17T21:05:07.689Z,15.70
2018-06-17T21:07:36.403Z,15.70
2018-06-17T21:10:05.406Z,15.69
2018-06-17T21:12:33.901Z,15.69
2018-06-17T21:15:07.606Z,15.69
2018-06-17T21:17:36.093Z,15.70
2018-06-17T21:20:10.057Z,15.72
2018-06-17T21:22:43.996Z,15.71
2018-06-17T21:25:17.850Z,15.69
2018-06-17T21:27:50.342Z,15.67
2018-06-17T21:30:19.314Z,15.67
2018-06-17T21:32:48.346Z,15.66
2018-06-17T21:35:17.302Z,15.61
2018-06-17T21:37:45.780Z,15.57
2018-06-17T21:40:14.710Z,15.55
2018-06-17T21:42:49.981Z,15.57
2018-06-17T21:45:18.630Z,15.54
2018-06-17T21:47:47.045Z,15.55
2018-06-17T21:50:16.190Z,15.55
2018-06-17T21:52:45.200Z,15.56
2018-06-17T21:55:14.510Z,15.58
2018-06-17T21:57:43.059Z,15.56
2018-06-17T22:00:12.335Z,15.52
2018-06-17T22:02:43.713Z,15.46
2018-06-17T22:05:12.493Z,15.42
2018-06-17T22:07:46.170Z,15.38
2018-06-17T22:10:20.445Z,15.35
2018-06-17T22:12:54.082Z,15.29
2018-06-17T22:15:27.898Z,15.22
2018-06-17T22:17:56.714Z,15.14
2018-06-17T22:20:28.042Z,15.10
2018-06-17T22:22:56.518Z,15.05
2018-06-17T22:25:25.238Z,15.01
2018-06-17T22:27:53.657Z,14.98
2018-06-17T22:30:22.369Z,14.96
2018-06-17T22:32:51.645Z,14.94
2018-06-17T22:35:20.784Z,14.92
2018-06-17T22:37:49.253Z,14.89
2018-06-17T22:40:18.174Z,14.85
2018-06-17T22:42:47.126Z,14.83
2018-06-17T22:45:16.183Z,14.78
2018-06-17T22:47:49.861Z,14.74
2018-06-17T22:50:19.225Z,14.44
2018-06-17T22:52:58.908Z,14.65
2018-06-17T22:55:28.133Z,14.59
2018-06-17T22:58:02.042Z,14.56
2018-06-17T23:00:35.742Z,14.53
2018-06-17T23:03:09.557Z,14.50
2018-06-17T23:05:43.237Z,14.47
2018-06-17T23:08:17.396Z,14.43
2018-06-17T23:10:46.061Z,14.39
2018-06-17T23:13:14.833Z,14.36
2018-06-17T23:15:43.293Z,14.30
2018-06-17T23:18:11.793Z,14.26
2018-06-17T23:20:40.377Z,14.22
2018-06-17T23:23:09.593Z,14.16
2018-06-17T23:25:38.159Z,14.10
2018-06-17T23:28:06.689Z,14.05
2018-06-17T23:30:36.164Z,14.01
2018-06-17T23:33:04.870Z,13.96
2018-06-17T23:35:33.325Z,13.94
2018-06-17T23:38:02.457Z,13.45
2018-06-17T23:40:30.978Z,13.83
2018-06-17T23:43:00.054Z,13.79
2018-06-17T23:45:28.469Z,13.76
2018-06-17T23:48:02.670Z,13.72
2018-06-17T23:50:37.270Z,13.69
2018-06-17T23:53:10.766Z,13.63
2018-06-17T23:55:44.554Z,13.55
2018-06-17T23:58:13.318Z,13.50
